Time;durP1;ratioP1;P1;durP2;ratioP2;P2;SDS_P1;SDS_P2;PMS_P1;PMS_P2;Temp;Humidity;BMP_temperature;BMP_pressure;BME280_temperature;BME280_humidity;BME280_pressure;Samples;Min_cycle;Max_cycle;Signal;HPM_P1;HPM_P2
2023/08/08 00:01:17;;;;;;;14.80;5.10;;;15.00;84.80;;;;;;4946491;28;20111;-74
2023/08/08 00:03:42;;;;;;;13.35;4.68;;;15.00;84.80;;;;;;4954685;28;20043;-74
2023/08/08 00:06:08;;;;;;;13.48;4.72;;;15.00;84.90;;;;;;4950871;28;20499;-74
2023/08/08 00:08:34;;;;;;;14.85;5.50;;;15.00;85.10;;;;;;4965423;28;20135;-73
2023/08/08 00:11:00;;;;;;;16.55;5.85;;;15.00;85.10;;;;;;4994226;28;20027;-74
2023/08/08 00:13:25;;;;;;;11.27;4.97;;;14.90;85.30;;;;;;4995163;28;20019;-74
2023/08/08 00:15:51;;;;;;;14.68;5.05;;;14.90;85.50;;;;;;4966845;28;20058;-74
2023/08/08 00:18:17;;;;;;;15.15;5.45;;;14.90;85.40;;;;;;4961825;28;20051;-74
2023/08/08 00:20:42;;;;;;;15.05;5.55;;;14.80;85.50;;;;;;4964883;28;20574;-74
2023/08/08 00:23:08;;;;;;;15.07;5.30;;;14.90;85.70;;;;;;4960054;28;20039;-74
2023/08/08 00:25:34;;;;;;;15.88;5.63;;;14.90;85.80;;;;;;4949784;28;20491;-74
2023/08/08 00:28:00;;;;;;;16.73;6.70;;;14.90;85.80;;;;;;4956027;28;20134;-74
2023/08/08 00:30:25;;;;;;;18.58;5.63;;;14.90;86.00;;;;;;4958358;28;20153;-74
2023/08/08 00:32:51;;;;;;;14.07;5.40;;;14.90;85.90;;;;;;4952546;28;20086;-73
2023/08/08 00:35:17;;;;;;;14.30;5.38;;;14.90;86.00;;;;;;4957129;28;20074;-73
2023/08/08 00:37:42;;;;;;;13.80;5.28;;;14.90;86.10;;;;;;4960069;28;20048;-74
2023/08/08 00:40:09;;;;;;;14.20;5.47;;;14.80;86.20;;;;;;4961932;28;20102;-74
2023/08/08 00:42:35;;;;;;;18.33;5.95;;;14.80;86.30;;;;;;4956071;28;20046;-73
2023/08/08 00:45:03;;;;;;;15.80;5.43;;;14.80;86.40;;;;;;4959248;28;20035;-74
2023/08/08 00:47:31;;;;;;;17.88;6.32;;;14.80;86.60;;;;;;4949103;28;20125;-73
2023/08/08 00:49:57;;;;;;;16.45;5.68;;;14.70;86.80;;;;;;4974368;28;20248;-73
2023/08/08 00:52:23;;;;;;;15.13;5.38;;;14.70;86.90;;;;;;4968708;28;20988;-73
2023/08/08 00:54:48;;;;;;;15.07;5.20;;;14.70;87.10;;;;;;4965870;28;20042;-74
2023/08/08 00:57:14;;;;;;;19.83;5.72;;;14.70;87.20;;;;;;4964500;28;20371;-73
2023/08/08 00:59:40;;;;;;;14.38;5.03;;;14.70;87.20;;;;;;4974658;28;20463;-73
2023/08/08 01:02:06;;;;;;;14.45;5.03;;;14.60;87.20;;;;;;4969545;28;20482;-73
2023/08/08 01:04:31;;;;;;;17.20;5.57;;;14.60;87.40;;;;;;4966170;28;20054;-73
2023/08/08 01:07:38;;;;;;;14.40;5.18;;;14.60;87.50;;;;;;4970840;28;20051;-74
2023/08/08 01:10:12;;;;;;;18.00;5.78;;;14.60;87.50;;;;;;4991083;28;20562;-73
2023/08/08 01:12:45;;;;;;;12.30;5.30;;;14.60;87.70;;;;;;4970481;28;20081;-73
2023/08/08 01:15:12;;;;;;;17.67;5.88;;;14.60;87.80;;;;;;4972994;28;20178;-73
2023/08/08 01:17:39;;;;;;;21.60;6.55;;;14.60;87.80;;;;;;4970556;28;20030;-73
2023/08/08 01:20:06;;;;;;;17.45;5.72;;;14.50;88.00;;;;;;4969888;28;20031;-74
2023/08/08 01:22:50;;;;;;;18.40;5.32;;;14.50;88.10;;;;;;4975438;28;20050;-74
2023/08/08 01:25:16;;;;;;;18.85;6.03;;;14.50;88.20;;;;;;4964438;28;20027;-74
2023/08/08 01:27:42;;;;;;;18.38;5.85;;;14.40;88.30;;;;;;4963075;28;20043;-74
2023/08/08 01:30:09;;;;;;;16.25;6.13;;;14.40;88.50;;;;;;4957098;28;20046;-73
2023/08/08 01:32:34;;;;;;;17.55;5.75;;;14.40;88.50;;;;;;4954769;28;20075;-73
2023/08/08 01:35:00;;;;;;;17.70;5.72;;;14.40;88.60;;;;;;4960739;28;20214;-74
2023/08/08 01:37:35;;;;;;;15.10;5.50;;;14.30;88.60;;;;;;4950961;28;20041;-74
2023/08/08 01:40:02;;;;;;;16.55;6.10;;;14.30;88.80;;;;;;4970070;28;20043;-75
2023/08/08 01:42:28;;;;;;;26.35;6.35;;;14.30;88.80;;;;;;4983598;28;20096;-74
2023/08/08 01:44:55;;;;;;;14.20;6.43;;;14.30;88.80;;;;;;4976681;28;20247;-75
2023/08/08 01:47:20;;;;;;;17.15;5.80;;;14.30;88.90;;;;;;4949156;28;20042;-75
2023/08/08 01:49:46;;;;;;;24.10;6.80;;;14.20;88.90;;;;;;4951639;28;20047;-74
2023/08/08 01:52:12;;;;;;;17.77;5.47;;;14.20;89.00;;;;;;4952809;28;20031;-74
2023/08/08 01:54:38;;;;;;;16.88;5.80;;;14.20;89.00;;;;;;4968772;28;20030;-75
2023/08/08 01:57:04;;;;;;;17.60;5.68;;;14.20;89.00;;;;;;4969888;28;20104;-74
2023/08/08 01:59:30;;;;;;;14.00;5.93;;;14.20;89.10;;;;;;4945324;28;20032;-75
2023/08/08 02:01:55;;;;;;;19.85;6.05;;;14.10;89.10;;;;;;4945868;28;20023;-75
2023/08/08 02:04:21;;;;;;;15.85;6.30;;;14.10;89.30;;;;;;4945493;28;20171;-75
2023/08/08 02:06:47;;;;;;;20.75;6.88;;;14.10;89.30;;;;;;4945989;28;20451;-74
2023/08/08 02:09:14;;;;;;;16.13;6.80;;;14.20;89.40;;;;;;4964551;28;20046;-74
2023/08/08 02:11:40;;;;;;;18.55;6.97;;;14.10;89.50;;;;;;4967589;28;20031;-74
2023/08/08 02:14:06;;;;;;;20.40;7.68;;;14.10;89.60;;;;;;4961197;28;20031;-74
2023/08/08 02:16:32;;;;;;;20.48;7.38;;;14.10;89.70;;;;;;4947592;29;20035;-74
2023/08/08 02:18:57;;;;;;;21.17;7.32;;;14.20;89.90;;;;;;4947197;28;20040;-74
2023/08/08 02:21:23;;;;;;;20.50;7.78;;;14.10;89.80;;;;;;4946546;28;20380;-74
2023/08/08 02:23:48;;;;;;;20.27;7.65;;;14.10;89.80;;;;;;4949867;28;21065;-72
2023/08/08 02:26:14;;;;;;;18.83;7.47;;;14.10;89.90;;;;;;4964131;28;20043;-73
2023/08/08 02:28:41;;;;;;;18.60;8.15;;;14.10;89.90;;;;;;4966060;28;20046;-74
2023/08/08 02:31:06;;;;;;;20.40;7.07;;;14.10;90.00;;;;;;4969040;28;20018;-74
2023/08/08 02:33:32;;;;;;;22.50;7.35;;;14.10;90.10;;;;;;4970398;28;20042;-74
2023/08/08 02:35:58;;;;;;;22.30;7.55;;;14.10;90.10;;;;;;4951398;28;20110;-75
2023/08/08 02:38:23;;;;;;;22.17;7.43;;;14.10;90.20;;;;;;4947053;28;20098;-75
2023/08/08 02:40:49;;;;;;;25.05;8.43;;;14.10;90.30;;;;;;4966803;28;20122;-74
2023/08/08 02:43:16;;;;;;;14.38;6.63;;;14.10;90.30;;;;;;4968698;28;20149;-75
2023/08/08 02:45:42;;;;;;;21.42;7.35;;;14.10;90.30;;;;;;4950198;28;20074;-75
2023/08/08 02:48:07;;;;;;;22.70;7.15;;;14.10;90.40;;;;;;4961148;28;20066;-74
2023/08/08 02:50:33;;;;;;;23.73;7.05;;;14.10;90.40;;;;;;4972152;28;20350;-75
2023/08/08 02:52:59;;;;;;;24.45;7.88;;;14.10;90.40;;;;;;4977088;28;20034;-75
2023/08/08 02:55:24;;;;;;;21.42;7.68;;;14.10;90.40;;;;;;4955320;28;20058;-74
2023/08/08 02:57:50;;;;;;;22.08;8.43;;;14.10;90.50;;;;;;4956866;28;20075;-75
2023/08/08 03:00:17;;;;;;;16.88;6.78;;;14.10;90.50;;;;;;4964705;28;20042;-75
2023/08/08 03:02:42;;;;;;;21.50;7.18;;;14.10;90.60;;;;;;4975683;28;20057;-74
2023/08/08 03:05:08;;;;;;;20.98;7.20;;;14.10;90.50;;;;;;4968014;28;20396;-74
2023/08/08 03:07:34;;;;;;;18.10;7.75;;;14.00;90.60;;;;;;4964742;28;20290;-75
2023/08/08 03:10:00;;;;;;;18.77;8.02;;;14.00;90.70;;;;;;4968980;28;20145;-74
2023/08/08 03:12:25;;;;;;;21.20;8.63;;;14.00;90.80;;;;;;4969478;28;20037;-75
2023/08/08 03:14:51;;;;;;;22.13;7.05;;;14.00;90.90;;;;;;4962299;28;20354;-75
2023/08/08 03:17:17;;;;;;;16.67;6.97;;;14.00;90.80;;;;;;4965490;28;20034;-74
2023/08/08 03:19:43;;;;;;;17.67;7.35;;;13.90;90.70;;;;;;4967751;28;20126;-75
2023/08/08 03:22:08;;;;;;;15.13;7.28;;;13.90;90.80;;;;;;4963431;28;20468;-74
2023/08/08 03:24:34;;;;;;;21.75;7.75;;;13.90;90.80;;;;;;4963627;28;20431;-74
2023/08/08 03:27:00;;;;;;;18.90;7.35;;;13.90;90.90;;;;;;4954962;28;20106;-75
2023/08/08 03:29:25;;;;;;;19.92;7.00;;;13.90;90.90;;;;;;4964117;28;20051;-75
2023/08/08 03:31:51;;;;;;;22.58;8.85;;;13.90;90.90;;;;;;4962203;28;20035;-75
2023/08/08 03:34:17;;;;;;;23.35;8.02;;;13.90;91.00;;;;;;4959851;28;20060;-75
2023/08/08 03:36:42;;;;;;;28.50;7.97;;;13.90;91.00;;;;;;4946338;28;20475;-74
2023/08/08 03:39:08;;;;;;;17.80;7.43;;;13.90;91.10;;;;;;4944681;28;20448;-74
2023/08/08 03:41:34;;;;;;;23.85;7.55;;;13.90;91.10;;;;;;4948674;28;20404;-74
2023/08/08 03:43:59;;;;;;;22.00;7.88;;;13.80;91.10;;;;;;4952991;28;20484;-74
2023/08/08 03:46:25;;;;;;;18.52;7.65;;;13.90;91.20;;;;;;4966076;28;20275;-75
2023/08/08 03:48:51;;;;;;;19.40;7.97;;;13.80;91.20;;;;;;4952755;28;20526;-74
2023/08/08 03:51:16;;;;;;;17.52;7.97;;;13.80;91.30;;;;;;4972496;28;20041;-74
2023/08/08 03:53:42;;;;;;;21.98;8.05;;;13.90;91.20;;;;;;4967190;28;20510;-74
2023/08/08 03:56:08;;;;;;;19.90;7.47;;;13.80;91.20;;;;;;4965299;28;20027;-73
2023/08/08 03:58:33;;;;;;;21.80;7.03;;;13.80;91.40;;;;;;4969392;28;20481;-74
2023/08/08 04:00:59;;;;;;;21.67;8.18;;;13.80;91.30;;;;;;4971417;28;20053;-73
2023/08/08 04:03:25;;;;;;;24.92;8.13;;;13.80;91.40;;;;;;4976797;28;20489;-74
2023/08/08 04:05:50;;;;;;;22.48;8.15;;;13.80;91.50;;;;;;4965447;28;20462;-74
2023/08/08 04:08:17;;;;;;;24.98;8.35;;;13.80;91.40;;;;;;4965145;28;20046;-73
2023/08/08 04:10:43;;;;;;;18.67;7.10;;;13.80;91.40;;;;;;4963159;28;20483;-73
2023/08/08 04:13:09;;;;;;;19.73;7.95;;;13.80;91.40;;;;;;4958542;28;20039;-74
2023/08/08 04:15:35;;;;;;;21.25;7.07;;;13.80;91.40;;;;;;4966102;28;20093;-73
2023/08/08 04:18:01;;;;;;;25.85;8.40;;;13.80;91.30;;;;;;4966571;28;20439;-74
2023/08/08 04:20:27;;;;;;;19.23;7.97;;;13.70;91.40;;;;;;4976062;28;20042;-73
2023/08/08 04:22:52;;;;;;;20.45;8.07;;;13.70;91.50;;;;;;4963017;28;20146;-74
2023/08/08 04:25:19;;;;;;;20.08;7.72;;;13.70;91.50;;;;;;4965949;28;20035;-73
2023/08/08 04:27:44;;;;;;;19.58;8.23;;;13.80;91.60;;;;;;4968410;28;20053;-73
2023/08/08 04:30:10;;;;;;;18.58;7.80;;;13.70;91.50;;;;;;4975443;28;20062;-73
2023/08/08 04:32:36;;;;;;;17.80;7.97;;;13.80;91.60;;;;;;4964227;28;20058;-73
2023/08/08 04:35:02;;;;;;;20.95;8.38;;;13.80;91.60;;;;;;4948705;28;20042;-73
2023/08/08 04:37:27;;;;;;;18.70;7.38;;;13.80;91.50;;;;;;4949793;28;20066;-74
2023/08/08 04:39:53;;;;;;;20.20;7.65;;;13.80;91.50;;;;;;4949682;28;20035;-74
2023/08/08 04:42:19;;;;;;;26.30;7.80;;;13.90;91.40;;;;;;4957288;28;20102;-74
2023/08/08 04:44:45;;;;;;;20.48;6.93;;;13.90;91.50;;;;;;4961995;28;20074;-73
2023/08/08 04:47:11;;;;;;;18.83;6.95;;;13.90;91.50;;;;;;4968176;28;20491;-74
2023/08/08 04:49:36;;;;;;;21.10;6.85;;;13.90;91.30;;;;;;4968421;28;20124;-73
2023/08/08 04:52:02;;;;;;;22.02;7.03;;;14.00;91.30;;;;;;4972958;28;20054;-73
2023/08/08 04:54:29;;;;;;;19.42;6.50;;;14.00;91.30;;;;;;4964319;28;20530;-74
2023/08/08 04:56:54;;;;;;;18.80;6.32;;;14.10;91.10;;;;;;4968343;28;20034;-73
2023/08/08 04:59:20;;;;;;;22.58;7.85;;;14.10;90.90;;;;;;4957001;28;20385;-75
2023/08/08 05:01:46;;;;;;;17.80;6.07;;;14.20;90.70;;;;;;4951625;28;20031;-74
2023/08/08 05:04:11;;;;;;;21.20;6.57;;;14.20;90.60;;;;;;4966947;28;20053;-75
2023/08/08 05:06:37;;;;;;;16.73;6.28;;;14.30;90.50;;;;;;4966559;28;20090;-74
2023/08/08 05:09:03;;;;;;;20.25;6.25;;;14.30;90.40;;;;;;4964306;28;20046;-74
2023/08/08 05:11:28;;;;;;;18.92;6.68;;;14.40;90.20;;;;;;4965065;28;20035;-73
2023/08/08 05:13:54;;;;;;;17.60;5.93;;;14.40;90.10;;;;;;4965899;28;20074;-75
2023/08/08 05:16:20;;;;;;;15.90;5.55;;;14.40;89.90;;;;;;4949383;28;20054;-75
2023/08/08 05:18:46;;;;;;;18.08;6.13;;;14.40;89.90;;;;;;4952255;28;20039;-74
2023/08/08 05:21:11;;;;;;;20.42;6.55;;;14.50;89.70;;;;;;4952126;28;20023;-75
2023/08/08 05:23:37;;;;;;;16.95;5.72;;;14.50;89.50;;;;;;4966730;28;20043;-74
2023/08/08 05:26:03;;;;;;;21.60;6.53;;;14.50;89.40;;;;;;4970051;28;21136;-74
2023/08/08 05:28:29;;;;;;;20.70;6.13;;;14.50;89.30;;;;;;4969333;28;20130;-74
2023/08/08 05:30:56;;;;;;;19.85;5.68;;;14.50;89.40;;;;;;4973166;28;20098;-74
2023/08/08 05:33:22;;;;;;;17.80;6.78;;;14.60;89.30;;;;;;4946374;28;20500;-72
2023/08/08 05:35:47;;;;;;;19.65;6.80;;;14.60;89.20;;;;;;4966616;28;20037;-74
2023/08/08 05:38:13;;;;;;;16.38;5.40;;;14.70;89.10;;;;;;4959270;28;20621;-72
2023/08/08 05:40:39;;;;;;;15.27;5.45;;;14.80;88.80;;;;;;4956733;28;20078;-75
2023/08/08 05:43:04;;;;;;;17.95;6.00;;;14.80;88.80;;;;;;4968346;28;20049;-74
2023/08/08 05:45:31;;;;;;;13.95;5.53;;;14.90;88.50;;;;;;4962649;28;20506;-74
2023/08/08 05:47:57;;;;;;;15.40;5.75;;;14.90;88.30;;;;;;4970464;28;20042;-74
2023/08/08 05:50:23;;;;;;;19.65;6.00;;;15.00;88.10;;;;;;4964255;28;20142;-74
2023/08/08 05:52:48;;;;;;;12.50;5.32;;;15.00;87.80;;;;;;4962534;28;20504;-75
2023/08/08 05:55:14;;;;;;;18.65;5.70;;;15.10;87.80;;;;;;4959170;28;20093;-74
2023/08/08 05:57:40;;;;;;;13.98;5.63;;;15.10;87.60;;;;;;4962729;28;20279;-75
2023/08/08 06:00:08;;;;;;;17.20;5.40;;;15.20;87.10;;;;;;4974696;28;20046;-74
2023/08/08 06:02:34;;;;;;;14.23;6.35;;;15.30;87.00;;;;;;4969330;28;20054;-75
2023/08/08 06:04:59;;;;;;;14.38;4.88;;;15.40;86.50;;;;;;4971744;28;20031;-75
2023/08/08 06:07:25;;;;;;;15.30;5.32;;;15.50;86.50;;;;;;4947037;28;20031;-75
2023/08/08 06:09:51;;;;;;;14.23;5.65;;;15.50;86.20;;;;;;4958370;28;20059;-74
2023/08/08 06:12:17;;;;;;;17.63;5.68;;;15.60;86.00;;;;;;4963552;28;20463;-75
2023/08/08 06:14:42;;;;;;;15.32;5.53;;;15.60;85.90;;;;;;4962446;28;20460;-74
2023/08/08 06:17:08;;;;;;;18.33;5.63;;;15.80;85.50;;;;;;4964285;28;20065;-73
2023/08/08 06:19:34;;;;;;;12.77;5.47;;;16.00;85.30;;;;;;4955224;28;20077;-73
2023/08/08 06:21:59;;;;;;;14.15;5.55;;;16.30;84.50;;;;;;4963544;28;20054;-73
2023/08/08 06:24:25;;;;;;;13.38;5.18;;;16.60;83.50;;;;;;4963213;28;20027;-73
2023/08/08 06:26:51;;;;;;;12.75;5.45;;;16.70;83.00;;;;;;4967403;28;20035;-73
2023/08/08 06:29:16;;;;;;;14.23;5.70;;;16.80;82.20;;;;;;4959835;28;20047;-74
2023/08/08 06:31:42;;;;;;;13.48;5.03;;;17.00;82.10;;;;;;4958121;28;20483;-74
2023/08/08 06:34:08;;;;;;;15.32;5.40;;;17.00;81.30;;;;;;4948770;28;20046;-73
2023/08/08 06:36:33;;;;;;;11.52;5.10;;;16.70;81.60;;;;;;4963161;28;20031;-73
2023/08/08 06:38:59;;;;;;;13.60;5.15;;;16.90;82.00;;;;;;4963358;28;20581;-74
2023/08/08 06:41:25;;;;;;;13.38;5.20;;;16.90;81.30;;;;;;4963023;28;20081;-74
2023/08/08 06:43:51;;;;;;;14.55;6.10;;;16.90;81.40;;;;;;4959636;28;20121;-74
2023/08/08 06:46:20;;;;;;;13.60;5.45;;;16.90;82.00;;;;;;4958377;28;20039;-74
2023/08/08 06:48:46;;;;;;;14.10;6.25;;;17.10;81.20;;;;;;4963561;28;20045;-73
2023/08/08 06:51:12;;;;;;;14.88;5.05;;;17.20;80.90;;;;;;4975725;28;20027;-73
2023/08/08 06:53:38;;;;;;;14.30;5.30;;;17.30;81.20;;;;;;4970321;28;20065;-73
2023/08/08 06:56:04;;;;;;;15.77;4.72;;;17.40;80.10;;;;;;4972863;28;20510;-73
2023/08/08 06:58:29;;;;;;;14.90;5.53;;;17.60;80.10;;;;;;4971095;28;20411;-73
2023/08/08 07:00:55;;;;;;;11.40;4.72;;;17.50;79.40;;;;;;4971007;28;20038;-73
2023/08/08 07:03:21;;;;;;;11.55;4.07;;;17.50;79.50;;;;;;4972179;28;20046;-73
2023/08/08 07:05:51;;;;;;;16.50;4.68;;;17.70;79.00;;;;;;4966048;28;20031;-73
2023/08/08 07:08:17;;;;;;;13.85;4.72;;;17.70;79.10;;;;;;4967154;28;20034;-73
2023/08/08 07:10:43;;;;;;;12.35;4.60;;;17.90;79.60;;;;;;4963697;28;20055;-73
2023/08/08 07:13:08;;;;;;;13.18;4.72;;;18.10;78.10;;;;;;4963813;28;20469;-74
2023/08/08 07:15:34;;;;;;;13.70;5.35;;;18.10;78.30;;;;;;4952181;28;20418;-73
2023/08/08 07:18:00;;;;;;;12.25;4.20;;;18.10;78.10;;;;;;4960388;28;20399;-73
2023/08/08 07:20:26;;;;;;;13.23;4.43;;;18.00;77.70;;;;;;4966389;28;20038;-73
2023/08/08 07:22:51;;;;;;;13.20;4.95;;;17.90;77.10;;;;;;4958601;28;20045;-73
2023/08/08 07:25:17;;;;;;;11.07;4.72;;;17.90;77.50;;;;;;4963791;28;20450;-72
2023/08/08 07:27:43;;;;;;;11.38;4.10;;;17.70;77.50;;;;;;4956596;28;20043;-72
2023/08/08 07:30:09;;;;;;;11.48;5.05;;;17.60;77.90;;;;;;4937881;28;20051;-73
2023/08/08 07:32:34;;;;;;;11.45;4.82;;;17.80;78.50;;;;;;4946989;28;20038;-74
2023/08/08 07:35:02;;;;;;;10.65;5.22;;;17.70;78.10;;;;;;4964691;28;20035;-74
2023/08/08 07:37:28;;;;;;;10.57;4.45;;;17.70;78.00;;;;;;4970689;28;20085;-74
2023/08/08 07:39:54;;;;;;;12.27;4.50;;;17.80;77.40;;;;;;4951321;28;20039;-73
2023/08/08 07:42:19;;;;;;;13.63;5.28;;;17.70;77.10;;;;;;4951927;28;20051;-74
2023/08/08 07:44:45;;;;;;;12.90;4.82;;;17.70;77.30;;;;;;4960291;28;21254;-73
2023/08/08 07:47:11;;;;;;;13.77;4.85;;;17.80;77.30;;;;;;4950863;28;20452;-75
2023/08/08 07:49:36;;;;;;;12.60;4.88;;;18.10;77.10;;;;;;4956995;28;20039;-74
2023/08/08 07:52:02;;;;;;;15.38;5.25;;;18.10;75.90;;;;;;4961991;28;20037;-74
2023/08/08 07:54:29;;;;;;;13.70;4.65;;;18.40;76.00;;;;;;4970689;28;20035;-75
2023/08/08 07:56:55;;;;;;;12.98;4.70;;;18.80;74.70;;;;;;4966953;28;20085;-73
2023/08/08 07:59:21;;;;;;;15.63;4.40;;;19.10;73.60;;;;;;4965888;28;20109;-73
2023/08/08 08:01:47;;;;;;;11.57;4.53;;;19.10;72.40;;;;;;4965567;28;20023;-74
2023/08/08 08:04:13;;;;;;;11.48;4.85;;;19.10;72.00;;;;;;4967227;28;20031;-74
2023/08/08 08:06:38;;;;;;;9.95;4.03;;;19.10;72.00;;;;;;4969744;28;20439;-74
2023/08/08 08:09:04;;;;;;;11.90;4.28;;;19.20;72.50;;;;;;4966459;28;20177;-74
2023/08/08 08:11:30;;;;;;;13.90;4.97;;;19.00;72.50;;;;;;4970945;28;20034;-74
2023/08/08 08:13:55;;;;;;;13.02;4.88;;;19.20;72.50;;;;;;4952264;28;20042;-73
2023/08/08 08:16:21;;;;;;;10.73;4.38;;;19.20;71.00;;;;;;4965206;28;20554;-74
2023/08/08 08:18:47;;;;;;;11.38;4.63;;;19.50;70.50;;;;;;4963525;28;20185;-73
2023/08/08 08:21:14;;;;;;;10.60;4.63;;;19.60;69.50;;;;;;4965223;28;20170;-73
2023/08/08 08:23:40;;;;;;;8.50;4.50;;;19.50;69.90;;;;;;4959861;28;20112;-74
2023/08/08 08:26:07;;;;;;;9.88;4.30;;;19.20;69.80;;;;;;4965055;28;20066;-73
2023/08/08 08:28:32;;;;;;;15.00;4.65;;;19.00;70.00;;;;;;4961645;28;20031;-75
2023/08/08 08:31:04;;;;;;;10.23;4.82;;;18.80;71.70;;;;;;4950283;28;20050;-73
2023/08/08 08:33:29;;;;;;;13.60;5.82;;;19.00;71.70;;;;;;4966856;28;20112;-74
2023/08/08 08:35:55;;;;;;;9.88;4.90;;;19.10;71.20;;;;;;4945512;28;20440;-74
2023/08/08 08:38:21;;;;;;;9.65;4.20;;;19.20;70.90;;;;;;4944913;28;20051;-74
2023/08/08 08:40:48;;;;;;;10.00;4.07;;;19.30;70.50;;;;;;4943628;28;20054;-74
2023/08/08 08:43:16;;;;;;;9.80;4.20;;;19.40;70.30;;;;;;4913460;28;20397;-73
2023/08/08 08:45:47;;;;;;;9.68;4.55;;;19.20;69.30;;;;;;4917529;28;20087;-74
2023/08/08 08:48:15;;;;;;;9.23;4.35;;;19.10;69.10;;;;;;4922124;28;20079;-74
2023/08/08 08:50:43;;;;;;;8.45;4.38;;;18.80;69.90;;;;;;4933978;28;20158;-74
2023/08/08 08:53:11;;;;;;;24.20;7.55;;;18.60;70.70;;;;;;4935872;28;20256;-73
2023/08/08 08:55:37;;;;;;;9.82;4.32;;;18.70;71.50;;;;;;4934548;28;20113;-73
2023/08/08 08:58:04;;;;;;;7.80;3.92;;;19.00;70.10;;;;;;4938178;28;20649;-73
2023/08/08 09:00:31;;;;;;;13.95;4.68;;;19.00;69.80;;;;;;4939594;28;20047;-74
2023/08/08 09:02:56;;;;;;;12.85;4.65;;;19.00;69.30;;;;;;4979389;28;20452;-74
2023/08/08 09:05:26;;;;;;;9.88;4.50;;;19.30;69.50;;;;;;4937440;28;20338;-74
2023/08/08 09:07:51;;;;;;;9.77;4.63;;;19.50;68.50;;;;;;4938447;28;20559;-74
2023/08/08 09:10:18;;;;;;;8.90;4.63;;;19.50;68.10;;;;;;4934466;28;20054;-74
2023/08/08 09:12:44;;;;;;;11.60;5.13;;;19.50;68.50;;;;;;4938462;28;20351;-73
2023/08/08 09:15:11;;;;;;;10.60;5.03;;;19.60;68.40;;;;;;4942848;28;20485;-75
2023/08/08 09:17:42;;;;;;;11.48;4.80;;;19.70;68.00;;;;;;4944148;28;20040;-74
2023/08/08 09:20:10;;;;;;;9.18;3.92;;;19.80;69.00;;;;;;4942361;28;20027;-73
2023/08/08 09:22:37;;;;;;;7.30;3.38;;;19.80;65.30;;;;;;4939964;28;20124;-75
2023/08/08 09:25:03;;;;;;;7.65;3.38;;;20.00;64.60;;;;;;4946669;28;20031;-74
2023/08/08 09:27:29;;;;;;;8.77;4.18;;;19.90;63.90;;;;;;4951851;28;20137;-74
2023/08/08 09:29:55;;;;;;;10.10;4.38;;;19.60;65.20;;;;;;4953060;28;20083;-75
2023/08/08 09:32:20;;;;;;;10.63;3.63;;;19.60;65.80;;;;;;4942543;28;20736;-74
2023/08/08 09:34:46;;;;;;;8.18;3.38;;;19.60;65.50;;;;;;4942037;28;20403;-74
2023/08/08 09:37:14;;;;;;;9.15;3.22;;;19.40;65.10;;;;;;4935588;28;20046;-75
2023/08/08 09:39:40;;;;;;;7.00;3.10;;;19.30;65.40;;;;;;4938840;28;20047;-73
2023/08/08 09:42:07;;;;;;;8.70;3.90;;;19.20;65.40;;;;;;4959121;28;20033;-74
2023/08/08 09:44:35;;;;;;;8.52;4.00;;;19.10;65.90;;;;;;4973333;28;20137;-73
2023/08/08 09:47:01;;;;;;;9.02;3.75;;;19.10;66.00;;;;;;4974681;28;20023;-73
2023/08/08 09:49:27;;;;;;;8.57;4.20;;;19.10;66.50;;;;;;4969099;28;20038;-75
2023/08/08 09:51:53;;;;;;;11.57;4.75;;;19.30;67.00;;;;;;4975675;28;20117;-75
2023/08/08 09:54:20;;;;;;;9.02;4.57;;;19.50;66.00;;;;;;4969332;28;20075;-76
2023/08/08 09:56:47;;;;;;;9.38;4.20;;;19.40;65.30;;;;;;4972434;28;20026;-75
2023/08/08 09:59:13;;;;;;;8.48;4.07;;;19.50;65.30;;;;;;4970146;28;20047;-75
2023/08/08 10:01:41;;;;;;;8.55;3.42;;;19.40;65.90;;;;;;4960181;28;20114;-73
2023/08/08 10:04:08;;;;;;;8.40;3.47;;;19.70;64.80;;;;;;4956066;28;20085;-74
2023/08/08 10:06:34;;;;;;;7.85;3.40;;;20.00;64.00;;;;;;4957003;28;20246;-74
2023/08/08 10:09:02;;;;;;;6.78;3.03;;;20.00;63.80;;;;;;4945649;28;20101;-74
2023/08/08 10:11:31;;;;;;;6.80;2.40;;;19.70;64.40;;;;;;4950586;28;20132;-73
2023/08/08 10:13:57;;;;;;;6.22;2.10;;;19.50;62.60;;;;;;4941416;28;20389;-74
2023/08/08 10:16:24;;;;;;;7.35;2.47;;;19.40;61.70;;;;;;4946970;28;20038;-73
2023/08/08 10:19:00;;;;;;;7.40;2.33;;;19.10;61.90;;;;;;4937597;28;20460;-73
2023/08/08 10:21:28;;;;;;;4.65;2.25;;;19.20;62.00;;;;;;4953583;28;20491;-74
2023/08/08 10:24:08;;;;;;;5.07;2.33;;;19.50;61.30;;;;;;4952324;28;20606;-75
2023/08/08 10:27:01;;;;;;;7.28;2.55;;;19.30;61.70;;;;;;4952877;28;20046;-74
2023/08/08 10:29:30;;;;;;;5.78;2.15;;;19.40;62.90;;;;;;4943627;28;20054;-73
2023/08/08 10:31:59;;;;;;;3.67;2.00;;;19.80;62.70;;;;;;4970082;28;20054;-74
2023/08/08 10:34:42;;;;;;;4.45;1.80;;;20.00;60.30;;;;;;4947397;28;20046;-73
2023/08/08 10:37:18;;;;;;;5.97;2.40;;;19.90;60.00;;;;;;4955535;28;20372;-73
2023/08/08 10:39:53;;;;;;;3.40;1.90;;;19.90;60.60;;;;;;4957263;28;20415;-73
2023/08/08 10:42:20;;;;;;;4.75;1.90;;;20.00;60.40;;;;;;4962328;28;20055;-74
2023/08/08 10:44:57;;;;;;;5.00;2.08;;;20.10;60.50;;;;;;4957804;28;20030;-75
2023/08/08 10:47:35;;;;;;;6.65;2.53;;;20.40;59.60;;;;;;4960071;28;20038;-74
2023/08/08 10:50:06;;;;;;;5.80;1.92;;;20.80;58.80;;;;;;4944887;28;20121;-73
2023/08/08 10:52:35;;;;;;;5.35;2.35;;;20.90;58.00;;;;;;4942003;28;20059;-74
2023/08/08 10:55:01;;;;;;;7.68;2.30;;;20.80;58.00;;;;;;4942557;28;20051;-75
2023/08/08 10:57:27;;;;;;;7.30;2.45;;;20.80;58.70;;;;;;4939981;28;20031;-74
2023/08/08 10:59:54;;;;;;;6.78;2.47;;;21.00;59.20;;;;;;4962530;28;20069;-75
2023/08/08 11:05:44;;;;;;;5.70;2.40;;;21.00;58.60;;;;;;4946896;28;20619;-75
2023/08/08 11:08:10;;;;;;;5.05;2.33;;;21.10;58.90;;;;;;4959873;28;20038;-74
2023/08/08 11:10:40;;;;;;;5.63;2.40;;;21.10;57.90;;;;;;4959876;28;20046;-74
2023/08/08 11:13:07;;;;;;;5.53;2.20;;;21.00;58.10;;;;;;4962962;28;20038;-75
2023/08/08 11:15:34;;;;;;;7.00;2.67;;;20.90;58.90;;;;;;4961670;28;20280;-73
2023/08/08 11:18:02;;;;;;;3.95;2.10;;;21.00;57.80;;;;;;4953432;28;20064;-77
2023/08/08 11:20:32;;;;;;;4.70;1.95;;;20.80;58.10;;;;;;4943869;28;20039;-76
2023/08/08 11:22:58;;;;;;;6.25;2.10;;;20.60;58.90;;;;;;4953879;28;20142;-77
2023/08/08 11:25:29;;;;;;;6.90;2.20;;;20.70;58.30;;;;;;4963341;28;20066;-76
2023/08/08 11:27:56;;;;;;;6.03;2.00;;;20.50;59.10;;;;;;4958127;28;20086;-77
2023/08/08 11:30:23;;;;;;;5.38;1.83;;;20.50;58.90;;;;;;4961420;28;20042;-77
2023/08/08 11:32:50;;;;;;;4.43;2.00;;;20.60;59.00;;;;;;4954437;28;20441;-73
2023/08/08 11:35:22;;;;;;;4.25;1.88;;;20.60;58.30;;;;;;4941689;28;20603;-75
2023/08/08 11:37:50;;;;;;;4.00;1.83;;;20.70;59.30;;;;;;4945415;28;20035;-74
2023/08/08 11:40:16;;;;;;;3.47;1.80;;;20.80;58.20;;;;;;4944853;28;20092;-74
2023/08/08 11:42:42;;;;;;;6.72;2.25;;;20.90;58.60;;;;;;4949595;28;20499;-75
2023/08/08 11:45:09;;;;;;;5.40;2.05;;;21.10;58.10;;;;;;4952992;28;20039;-76
2023/08/08 11:47:36;;;;;;;4.45;2.35;;;21.10;57.60;;;;;;4946631;28;20047;-75
2023/08/08 11:50:04;;;;;;;5.40;2.00;;;21.10;58.20;;;;;;4947399;28;20053;-75
2023/08/08 11:52:32;;;;;;;5.05;2.20;;;21.20;56.70;;;;;;4954321;28;20839;-77
2023/08/08 11:55:01;;;;;;;3.75;1.77;;;21.30;57.80;;;;;;4959127;28;20149;-74
2023/08/08 11:57:27;;;;;;;5.75;2.10;;;21.50;58.00;;;;;;4966514;28;20137;-74
2023/08/08 11:59:54;;;;;;;4.75;1.83;;;21.60;56.20;;;;;;4971223;28;20034;-74
2023/08/08 12:02:19;;;;;;;4.63;1.92;;;21.60;56.70;;;;;;4958029;28;20034;-74
2023/08/08 12:04:46;;;;;;;4.95;2.00;;;21.70;57.00;;;;;;4952386;28;20038;-74
2023/08/08 12:07:12;;;;;;;3.00;1.40;;;22.00;57.80;;;;;;4983175;28;20284;-74
2023/08/08 12:09:39;;;;;;;6.10;2.10;;;21.70;55.60;;;;;;4952239;28;20043;-74
2023/08/08 12:12:05;;;;;;;3.65;1.42;;;21.60;54.60;;;;;;4965043;28;20114;-75
2023/08/08 12:14:38;;;;;;;3.28;1.67;;;21.10;55.70;;;;;;4958327;28;20586;-75
2023/08/08 12:17:05;;;;;;;4.72;1.88;;;21.10;56.30;;;;;;4961078;28;20067;-76
2023/08/08 12:19:31;;;;;;;5.25;1.70;;;21.10;56.70;;;;;;4957436;28;20506;-75
2023/08/08 12:21:56;;;;;;;3.92;1.70;;;21.20;56.60;;;;;;4957569;28;20113;-75
2023/08/08 12:24:22;;;;;;;3.85;1.88;;;21.10;57.80;;;;;;4934662;28;20042;-73
2023/08/08 12:26:48;;;;;;;5.90;1.67;;;21.70;57.00;;;;;;4933132;28;20483;-74
2023/08/08 12:29:13;;;;;;;3.10;1.67;;;22.20;55.60;;;;;;4944725;28;20053;-74
2023/08/08 12:31:39;;;;;;;4.35;1.60;;;22.60;53.70;;;;;;4953854;28;20054;-73
2023/08/08 12:34:05;;;;;;;4.63;1.60;;;22.40;54.20;;;;;;4953512;28;20120;-74
2023/08/08 12:36:31;;;;;;;3.10;1.60;;;22.10;55.00;;;;;;4957342;28;20062;-75
2023/08/08 12:38:57;;;;;;;4.18;1.80;;;22.00;54.00;;;;;;4960270;28;20121;-75
2023/08/08 12:41:24;;;;;;;5.25;1.77;;;22.00;55.10;;;;;;4956886;28;20051;-76